Time;durP1;ratioP1;P1;durP2;ratioP2;P2;SDS_P1;SDS_P2;PMS_P1;PMS_P2;Temp;Humidity;BMP_temperature;BMP_pressure;BME280_temperature;BME280_humidity;BME280_pressure;Samples;Min_cycle;Max_cycle;Signal;HPM_P1;HPM_P2
2022/03/16 00:02:20;;;;;;;;;;;9.90;76.80;;;;;;4994018;28;19918;-61
2022/03/16 00:04:52;;;;;;;;;;;9.90;77.20;;;;;;4994364;28;19910;-61
2022/03/16 00:07:18;;;;;;;;;;;9.90;77.20;;;;;;4994145;28;19909;-59
2022/03/16 00:09:45;;;;;;;;;;;9.80;77.60;;;;;;4994180;28;19957;-61
2022/03/16 00:12:11;;;;;;;;;;;9.80;77.70;;;;;;4994282;28;19988;-58
2022/03/16 00:14:37;;;;;;;;;;;9.70;77.80;;;;;;4993978;28;19914;-59
2022/03/16 00:17:05;;;;;;;;;;;9.80;78.00;;;;;;4993851;28;20313;-59
2022/03/16 00:19:31;;;;;;;;;;;10.00;78.10;;;;;;4994273;28;19910;-61
2022/03/16 00:21:58;;;;;;;;;;;10.00;77.80;;;;;;4994090;28;19913;-60
2022/03/16 00:24:23;;;;;;;;;;;10.00;77.40;;;;;;4994306;28;19910;-61
2022/03/16 00:26:49;;;;;;;;;;;10.00;77.40;;;;;;4993895;28;19910;-60
2022/03/16 00:29:14;;;;;;;;;;;10.00;77.40;;;;;;4994064;28;19910;-59
2022/03/16 00:31:40;;;;;;;;;;;10.00;77.50;;;;;;4994072;28;19945;-59
2022/03/16 00:34:05;;;;;;;;;;;9.90;77.70;;;;;;4994012;28;19964;-59
2022/03/16 00:36:31;;;;;;;;;;;9.80;77.90;;;;;;4993937;28;19929;-59
2022/03/16 00:38:57;;;;;;;;;;;9.80;77.90;;;;;;4993872;28;19921;-59
2022/03/16 00:41:22;;;;;;;;;;;9.80;78.20;;;;;;4994025;28;19909;-59
2022/03/16 00:43:48;;;;;;;;;;;9.70;78.60;;;;;;4993817;28;20281;-60
2022/03/16 00:46:13;;;;;;;;;;;9.60;78.90;;;;;;4993924;28;19909;-60
2022/03/16 00:48:39;;;;;;;;;;;9.60;79.10;;;;;;4994159;28;19910;-60
2022/03/16 00:51:05;;;;;;;;;;;9.60;79.00;;;;;;4994124;28;19910;-60
2022/03/16 00:53:33;;;;;;;;;;;9.50;78.80;;;;;;4993822;28;19916;-60
2022/03/16 00:55:59;;;;;;;;;;;9.50;79.10;;;;;;4993791;28;19910;-61
2022/03/16 00:58:24;;;;;;;;;;;9.40;79.30;;;;;;4994064;28;19916;-60
2022/03/16 01:00:50;;;;;;;;;;;9.40;79.50;;;;;;4993745;28;19910;-60
2022/03/16 01:03:16;;;;;;;;;;;9.40;79.40;;;;;;4993502;28;19917;-60
2022/03/16 01:05:42;;;;;;;;;;;9.50;79.30;;;;;;4993942;28;20390;-60
2022/03/16 01:08:07;;;;;;;;;;;9.40;79.50;;;;;;4994105;28;19917;-60
2022/03/16 01:10:33;;;;;;;;;;;9.40;79.60;;;;;;4995787;28;19910;-59
2022/03/16 01:12:59;;;;;;;;;;;9.30;79.60;;;;;;4997003;28;19914;-59
2022/03/16 01:15:24;;;;;;;;;;;9.40;80.00;;;;;;4997220;28;19913;-59
2022/03/16 01:17:50;;;;;;;;;;;9.40;79.60;;;;;;4997334;28;19977;-59
2022/03/16 01:20:16;;;;;;;;;;;9.50;79.20;;;;;;4997093;28;20301;-59
2022/03/16 01:22:42;;;;;;;;;;;9.40;79.50;;;;;;4996968;28;19918;-59
2022/03/16 01:25:07;;;;;;;;;;;9.30;79.80;;;;;;4997131;28;19910;-60
2022/03/16 01:27:33;;;;;;;;;;;9.30;79.90;;;;;;4997158;28;19917;-60
2022/03/16 01:29:59;;;;;;;;;;;9.40;79.90;;;;;;4996985;28;19909;-64
2022/03/16 01:32:24;;;;;;;;;;;9.30;80.10;;;;;;4997184;28;19917;-68
2022/03/16 01:34:50;;;;;;;;;;;9.40;80.60;;;;;;4997204;28;20357;-59
2022/03/16 01:37:15;;;;;;;;;;;9.40;80.60;;;;;;4997028;28;19926;-60
2022/03/16 01:39:41;;;;;;;;;;;9.40;80.50;;;;;;4997539;28;19910;-61
2022/03/16 01:42:06;;;;;;;;;;;9.40;80.50;;;;;;4997458;28;19961;-63
2022/03/16 01:44:48;;;;;;;;;;;9.50;80.30;;;;;;4996823;28;19910;-66
2022/03/16 01:47:15;;;;;;;;;;;9.40;80.50;;;;;;4996712;28;19917;-60
2022/03/16 01:49:40;;;;;;;;;;;9.40;80.60;;;;;;4996688;28;19914;-65
2022/03/16 01:52:07;;;;;;;;;;;9.50;80.60;;;;;;4996476;28;19937;-62
2022/03/16 01:54:33;;;;;;;;;;;9.50;80.70;;;;;;4996687;28;19916;-58
2022/03/16 01:56:58;;;;;;;;;;;9.50;80.60;;;;;;4996208;28;20008;-67
2022/03/16 01:59:24;;;;;;;;;;;9.50;80.60;;;;;;4996587;28;19960;-59
2022/03/16 02:01:50;;;;;;;;;;;9.60;80.70;;;;;;4996547;28;19910;-66
2022/03/16 02:04:15;;;;;;;;;;;9.60;80.40;;;;;;4996484;28;19918;-61
2022/03/16 02:06:41;;;;;;;;;;;9.70;80.20;;;;;;4996123;28;19909;-62
2022/03/16 02:09:06;;;;;;;;;;;9.70;80.20;;;;;;4996119;28;20374;-67
2022/03/16 02:11:32;;;;;;;;;;;9.60;80.20;;;;;;4995974;28;19944;-66
2022/03/16 02:13:57;;;;;;;;;;;9.70;80.30;;;;;;4995914;28;20267;-61
2022/03/16 02:16:23;;;;;;;;;;;9.70;80.40;;;;;;4996054;28;19913;-62
2022/03/16 02:18:49;;;;;;;;;;;9.70;80.40;;;;;;4995652;28;19964;-61
2022/03/16 02:21:16;;;;;;;;;;;9.70;80.30;;;;;;4995943;28;19942;-58
2022/03/16 02:23:42;;;;;;;;;;;9.80;80.30;;;;;;4996001;28;19918;-60
2022/03/16 02:26:11;;;;;;;;;;;9.80;80.20;;;;;;4995876;28;19910;-59
2022/03/16 02:28:36;;;;;;;;;;;9.90;79.70;;;;;;4995883;28;19960;-60
2022/03/16 02:31:02;;;;;;;;;;;10.00;79.40;;;;;;4995897;28;19910;-64
2022/03/16 02:33:28;;;;;;;;;;;10.00;79.10;;;;;;4995579;28;19914;-59
2022/03/16 02:35:54;;;;;;;;;;;10.10;78.90;;;;;;4995796;28;19953;-60
2022/03/16 02:38:19;;;;;;;;;;;10.10;78.80;;;;;;4995711;28;19926;-62
2022/03/16 02:40:45;;;;;;;;;;;10.10;78.80;;;;;;4995599;28;20273;-59
2022/03/16 02:43:10;;;;;;;;;;;10.20;78.20;;;;;;4995902;28;19918;-59
2022/03/16 02:45:36;;;;;;;;;;;10.30;77.90;;;;;;5000519;28;20068;-59
2022/03/16 02:48:02;;;;;;;;;;;10.30;77.90;;;;;;4995770;28;19972;-61
2022/03/16 02:50:27;;;;;;;;;;;10.20;77.70;;;;;;4995319;28;19917;-59
2022/03/16 02:52:53;;;;;;;;;;;10.20;78.00;;;;;;4993895;28;19916;-59
2022/03/16 02:55:18;;;;;;;;;;;10.20;78.30;;;;;;4995201;28;19914;-59
2022/03/16 02:57:44;;;;;;;;;;;10.10;78.40;;;;;;4995353;28;20357;-65
2022/03/16 03:00:10;;;;;;;;;;;10.20;78.30;;;;;;4995012;28;19910;-62
2022/03/16 03:02:37;;;;;;;;;;;10.20;78.10;;;;;;4995079;28;19941;-60
2022/03/16 03:05:03;;;;;;;;;;;10.40;77.40;;;;;;4995189;28;19953;-59
2022/03/16 03:07:28;;;;;;;;;;;10.40;77.20;;;;;;4994865;28;19909;-66
2022/03/16 03:09:54;;;;;;;;;;;10.40;77.20;;;;;;4993680;28;19960;-59
2022/03/16 03:12:20;;;;;;;;;;;10.30;77.30;;;;;;4994723;28;19910;-61
2022/03/16 03:14:45;;;;;;;;;;;10.30;77.60;;;;;;4994960;28;20009;-64
2022/03/16 03:17:11;;;;;;;;;;;10.30;77.70;;;;;;4994639;28;19917;-66
2022/03/16 03:19:36;;;;;;;;;;;10.30;77.90;;;;;;4994946;28;19957;-60
2022/03/16 03:22:04;;;;;;;;;;;10.20;78.00;;;;;;4994552;28;19933;-62
2022/03/16 03:24:30;;;;;;;;;;;10.30;77.70;;;;;;4994716;28;19972;-61
2022/03/16 03:26:55;;;;;;;;;;;10.30;77.60;;;;;;4994544;28;19961;-62
2022/03/16 03:29:21;;;;;;;;;;;10.30;77.40;;;;;;4994654;28;19921;-64
2022/03/16 03:31:46;;;;;;;;;;;10.30;77.60;;;;;;4994060;28;19914;-62
2022/03/16 03:34:12;;;;;;;;;;;10.30;77.80;;;;;;4994448;28;19936;-59
2022/03/16 03:36:38;;;;;;;;;;;10.20;78.00;;;;;;4994189;28;19957;-59
2022/03/16 03:39:04;;;;;;;;;;;10.10;78.40;;;;;;4994582;28;20358;-61
2022/03/16 03:41:29;;;;;;;;;;;10.10;78.60;;;;;;4994510;28;19917;-59
2022/03/16 03:43:55;;;;;;;;;;;10.10;78.70;;;;;;4994353;28;20008;-59
2022/03/16 03:46:20;;;;;;;;;;;10.10;78.70;;;;;;4994407;28;19909;-60
2022/03/16 03:48:46;;;;;;;;;;;10.10;78.60;;;;;;4994344;28;20421;-59
2022/03/16 03:51:12;;;;;;;;;;;10.10;78.70;;;;;;4994440;28;19921;-60
2022/03/16 03:53:37;;;;;;;;;;;10.10;78.90;;;;;;4994069;28;19964;-63
2022/03/16 03:56:03;;;;;;;;;;;10.10;79.10;;;;;;4994414;28;19921;-61
2022/03/16 03:58:29;;;;;;;;;;;10.00;79.40;;;;;;4994312;28;19964;-60
2022/03/16 04:00:54;;;;;;;;;;;10.10;79.10;;;;;;4994240;28;19945;-59
2022/03/16 04:03:20;;;;;;;;;;;10.10;78.70;;;;;;4994149;28;19917;-61
2022/03/16 04:05:46;;;;;;;;;;;10.20;78.70;;;;;;4994042;28;19910;-59
2022/03/16 04:08:11;;;;;;;;;;;10.10;78.70;;;;;;4994019;28;19916;-60
2022/03/16 04:10:38;;;;;;;;;;;10.20;78.70;;;;;;4994001;28;19910;-60
2022/03/16 04:13:04;;;;;;;;;;;10.10;78.60;;;;;;4994074;28;19910;-59
2022/03/16 04:15:30;;;;;;;;;;;10.20;78.70;;;;;;4994313;28;20366;-60
2022/03/16 04:17:55;;;;;;;;;;;10.20;78.60;;;;;;4994076;28;19909;-60
2022/03/16 04:20:21;;;;;;;;;;;10.20;78.60;;;;;;4994041;28;20025;-62
2022/03/16 04:22:46;;;;;;;;;;;10.20;78.60;;;;;;4993921;28;19964;-61
2022/03/16 04:25:12;;;;;;;;;;;10.30;78.20;;;;;;4994250;28;19968;-60
2022/03/16 04:27:38;;;;;;;;;;;10.30;77.90;;;;;;4994266;28;19960;-59
2022/03/16 04:30:04;;;;;;;;;;;10.40;77.80;;;;;;4993986;28;19910;-60
2022/03/16 04:32:29;;;;;;;;;;;10.30;77.70;;;;;;4994197;28;20000;-59
2022/03/16 04:34:55;;;;;;;;;;;10.50;77.50;;;;;;4992747;28;20337;-59
2022/03/16 04:37:20;;;;;;;;;;;10.50;77.20;;;;;;4993747;28;19922;-59
2022/03/16 04:39:46;;;;;;;;;;;10.60;77.10;;;;;;4993962;28;19910;-58
2022/03/16 04:42:11;;;;;;;;;;;10.60;76.80;;;;;;4994461;28;19910;-59
2022/03/16 04:44:37;;;;;;;;;;;10.70;76.60;;;;;;4997694;28;19979;-59
2022/03/16 04:47:03;;;;;;;;;;;10.70;76.60;;;;;;4997732;28;19917;-64
2022/03/16 04:49:28;;;;;;;;;;;10.80;76.60;;;;;;4997565;28;19910;-59
2022/03/16 04:51:54;;;;;;;;;;;10.80;76.50;;;;;;4997649;28;19910;-59
2022/03/16 04:54:19;;;;;;;;;;;10.80;76.30;;;;;;4997566;28;19910;-60
2022/03/16 04:56:45;;;;;;;;;;;10.80;76.40;;;;;;4997485;28;19917;-61
2022/03/16 04:59:10;;;;;;;;;;;10.80;76.40;;;;;;4997518;28;20297;-60
2022/03/16 05:01:36;;;;;;;;;;;10.80;76.50;;;;;;4997511;28;19910;-60
2022/03/16 05:04:02;;;;;;;;;;;10.80;76.80;;;;;;4996133;28;20317;-60
2022/03/16 05:06:27;;;;;;;;;;;10.80;76.70;;;;;;4997109;28;19910;-59
2022/03/16 05:08:53;;;;;;;;;;;10.70;76.90;;;;;;4997367;28;19910;-59
2022/03/16 05:11:22;;;;;;;;;;;10.70;77.30;;;;;;4997330;28;19916;-59
2022/03/16 05:13:48;;;;;;;;;;;10.80;77.10;;;;;;4997165;28;19992;-60
2022/03/16 05:16:14;;;;;;;;;;;10.80;77.20;;;;;;4996980;28;20398;-59
2022/03/16 05:18:40;;;;;;;;;;;10.70;77.50;;;;;;4997243;28;19917;-60
2022/03/16 05:21:09;;;;;;;;;;;10.70;77.20;;;;;;4996937;28;19917;-58
2022/03/16 05:23:35;;;;;;;;;;;10.80;77.10;;;;;;4997661;28;20274;-61
2022/03/16 05:26:00;;;;;;;;;;;10.90;76.70;;;;;;5004320;28;19910;-60
2022/03/16 05:28:26;;;;;;;;;;;10.90;76.50;;;;;;4998548;28;19910;-58
2022/03/16 05:30:51;;;;;;;;;;;10.90;76.60;;;;;;4997112;28;19953;-58
2022/03/16 05:33:17;;;;;;;;;;;10.90;76.70;;;;;;4996793;28;19914;-59
2022/03/16 05:35:43;;;;;;;;;;;10.80;77.00;;;;;;4996650;28;20320;-60
2022/03/16 05:38:12;;;;;;;;;;;10.90;76.80;;;;;;4996518;28;19957;-59
2022/03/16 05:40:38;;;;;;;;;;;10.80;76.80;;;;;;4996806;28;19964;-58
2022/03/16 05:43:04;;;;;;;;;;;10.80;76.90;;;;;;4996636;28;19990;-59
2022/03/16 05:45:29;;;;;;;;;;;10.80;76.70;;;;;;4996838;28;19910;-60
2022/03/16 05:47:55;;;;;;;;;;;10.80;76.70;;;;;;4996696;28;19917;-63
2022/03/16 05:50:21;;;;;;;;;;;10.80;76.70;;;;;;4996518;28;19917;-60
2022/03/16 05:52:46;;;;;;;;;;;10.80;76.60;;;;;;4996460;28;19956;-60
2022/03/16 05:55:13;;;;;;;;;;;10.90;76.50;;;;;;4996050;28;19949;-59
2022/03/16 05:57:44;;;;;;;;;;;10.90;76.20;;;;;;4996353;28;19910;-60
2022/03/16 06:00:14;;;;;;;;;;;11.00;76.10;;;;;;4996164;28;19964;-58
2022/03/16 06:02:41;;;;;;;;;;;10.90;76.20;;;;;;4995928;28;20001;-60
2022/03/16 06:05:06;;;;;;;;;;;10.80;76.40;;;;;;4995954;28;19917;-59
2022/03/16 06:07:32;;;;;;;;;;;10.80;76.60;;;;;;4996361;28;19910;-59
2022/03/16 06:09:57;;;;;;;;;;;10.90;76.30;;;;;;4995824;28;20326;-58
2022/03/16 06:12:23;;;;;;;;;;;10.90;76.20;;;;;;4996020;28;19910;-59
2022/03/16 06:14:49;;;;;;;;;;;10.90;76.10;;;;;;4995918;28;20277;-60
2022/03/16 06:17:14;;;;;;;;;;;10.80;76.20;;;;;;4995790;28;20370;-61
2022/03/16 06:19:40;;;;;;;;;;;10.90;76.00;;;;;;4996083;28;19910;-59
2022/03/16 06:22:05;;;;;;;;;;;11.00;75.70;;;;;;4995579;28;19957;-59
2022/03/16 06:24:31;;;;;;;;;;;11.00;75.70;;;;;;4995813;28;20024;-59
2022/03/16 06:26:56;;;;;;;;;;;11.00;75.90;;;;;;4995665;28;19921;-61
2022/03/16 06:29:22;;;;;;;;;;;10.90;75.60;;;;;;4995902;28;19917;-60
2022/03/16 06:31:48;;;;;;;;;;;11.00;75.80;;;;;;4995751;28;19917;-61
2022/03/16 06:34:14;;;;;;;;;;;11.00;75.60;;;;;;4995684;28;19910;-58
2022/03/16 06:36:40;;;;;;;;;;;11.00;75.70;;;;;;4995361;28;20006;-59
2022/03/16 06:39:06;;;;;;;;;;;11.00;75.50;;;;;;4995539;28;19910;-60
2022/03/16 06:41:31;;;;;;;;;;;11.10;75.70;;;;;;4996280;28;19917;-61
2022/03/16 06:43:57;;;;;;;;;;;11.20;75.40;;;;;;4996742;28;20018;-60
2022/03/16 06:46:23;;;;;;;;;;;11.20;75.00;;;;;;4996193;28;19957;-63
2022/03/16 06:48:48;;;;;;;;;;;11.20;75.20;;;;;;4995737;28;19910;-65
2022/03/16 06:51:14;;;;;;;;;;;11.20;75.40;;;;;;4995362;28;19909;-63
2022/03/16 06:53:39;;;;;;;;;;;11.20;75.40;;;;;;4995328;28;19972;-66
2022/03/16 06:56:05;;;;;;;;;;;11.20;75.40;;;;;;4995218;28;20262;-60
2022/03/16 06:58:31;;;;;;;;;;;11.20;75.10;;;;;;4995136;28;19910;-72
2022/03/16 07:00:57;;;;;;;;;;;11.30;75.00;;;;;;4995149;28;19993;-64
2022/03/16 07:03:22;;;;;;;;;;;11.60;77.70;;;;;;4994707;28;20464;-66
2022/03/16 07:05:48;;;;;;;;;;;12.00;75.30;;;;;;4994138;28;19964;-62
2022/03/16 07:08:14;;;;;;;;;;;12.40;74.00;;;;;;4995023;28;20370;-61
2022/03/16 07:10:40;;;;;;;;;;;12.70;71.60;;;;;;4994928;28;19910;-60
2022/03/16 07:13:07;;;;;;;;;;;12.90;70.50;;;;;;4994882;28;19909;-65
2022/03/16 07:15:33;;;;;;;;;;;13.00;70.10;;;;;;4994133;28;19910;-62
2022/03/16 07:18:01;;;;;;;;;;;13.00;69.20;;;;;;4994523;28;19925;-58
2022/03/16 07:20:26;;;;;;;;;;;13.00;69.20;;;;;;4994756;28;19910;-67
2022/03/16 07:23:02;;;;;;;;;;;13.00;69.10;;;;;;4994710;28;19917;-67
2022/03/16 07:25:28;;;;;;;;;;;13.10;68.70;;;;;;4994651;28;19910;-70
2022/03/16 07:27:53;;;;;;;;;;;13.20;68.50;;;;;;4994581;28;19916;-61
2022/03/16 07:30:19;;;;;;;;;;;13.30;67.60;;;;;;4994666;28;19992;-69
2022/03/16 07:32:45;;;;;;;;;;;13.10;66.90;;;;;;4994379;28;20457;-61
2022/03/16 07:35:10;;;;;;;;;;;12.90;68.20;;;;;;4994449;28;19939;-66
2022/03/16 07:37:36;;;;;;;;;;;12.50;69.40;;;;;;4994377;28;19922;-66
2022/03/16 07:40:03;;;;;;;;;;;12.30;70.30;;;;;;4994655;28;19940;-58
2022/03/16 07:42:29;;;;;;;;;;;12.30;70.50;;;;;;4994451;28;19910;-70
2022/03/16 07:44:54;;;;;;;;;;;12.30;70.50;;;;;;4994401;28;20290;-58
2022/03/16 07:47:20;;;;;;;;;;;12.20;70.80;;;;;;4994143;28;19910;-58
2022/03/16 07:49:46;;;;;;;;;;;12.10;71.30;;;;;;4994596;28;19956;-60
2022/03/16 07:52:11;;;;;;;;;;;12.00;71.60;;;;;;4994435;28;19917;-57
2022/03/16 07:54:37;;;;;;;;;;;12.00;72.20;;;;;;4994746;28;19913;-56
2022/03/16 07:57:02;;;;;;;;;;;12.00;72.30;;;;;;4994371;28;19910;-59
2022/03/16 07:59:28;;;;;;;;;;;11.90;73.10;;;;;;4994779;28;19909;-56
2022/03/16 08:01:53;;;;;;;;;;;11.90;72.30;;;;;;4994241;28;19909;-60
2022/03/16 08:04:19;;;;;;;;;;;12.00;71.90;;;;;;4994130;28;19953;-56
2022/03/16 08:06:44;;;;;;;;;;;12.10;71.70;;;;;;4991393;28;20338;-57
2022/03/16 08:09:10;;;;;;;;;;;12.10;71.60;;;;;;4990924;28;20009;-56
2022/03/16 08:11:36;;;;;;;;;;;12.10;71.50;;;;;;4993969;28;19916;-60
2022/03/16 08:14:01;;;;;;;;;;;12.00;71.20;;;;;;4993800;28;20262;-57
2022/03/16 08:16:27;;;;;;;;;;;12.10;71.30;;;;;;4994010;28;19983;-56
2022/03/16 08:18:52;;;;;;;;;;;12.10;71.40;;;;;;4996191;28;19965;-57
2022/03/16 08:21:18;;;;;;;;;;;12.10;71.10;;;;;;4997699;28;19964;-57
2022/03/16 08:23:43;;;;;;;;;;;12.20;71.20;;;;;;4998005;28;19924;-64
2022/03/16 08:26:09;;;;;;;;;;;12.20;71.00;;;;;;4997964;28;19925;-61
2022/03/16 08:28:34;;;;;;;;;;;12.20;70.80;;;;;;4998065;28;19978;-59
2022/03/16 08:31:01;;;;;;;;;;;12.20;70.70;;;;;;4997700;28;19916;-57
2022/03/16 08:33:27;;;;;;;;;;;12.20;70.40;;;;;;4997864;28;19910;-56
2022/03/16 08:35:52;;;;;;;;;;;12.30;70.10;;;;;;4997988;28;19920;-56
2022/03/16 08:38:18;;;;;;;;;;;12.30;70.00;;;;;;4997568;28;19933;-61
2022/03/16 08:40:43;;;;;;;;;;;12.40;69.40;;;;;;4997813;28;19941;-65
2022/03/16 08:43:09;;;;;;;;;;;12.50;69.00;;;;;;4997398;28;19918;-62
2022/03/16 08:45:35;;;;;;;;;;;12.60;68.90;;;;;;4997284;28;19976;-66
2022/03/16 08:48:01;;;;;;;;;;;12.50;68.90;;;;;;4997577;28;19909;-61
2022/03/16 08:50:29;;;;;;;;;;;12.60;69.00;;;;;;4997539;28;20000;-57
2022/03/16 08:52:55;;;;;;;;;;;12.70;68.20;;;;;;4997549;28;19917;-56
2022/03/16 08:55:22;;;;;;;;;;;12.70;67.90;;;;;;4997557;28;19909;-56
2022/03/16 08:57:47;;;;;;;;;;;12.70;67.80;;;;;;4997528;28;19914;-61
2022/03/16 09:00:18;;;;;;;;;;;12.60;68.00;;;;;;4997159;28;19917;-58
2022/03/16 09:02:44;;;;;;;;;;;12.60;68.30;;;;;;4997286;28;19965;-69
2022/03/16 09:05:10;;;;;;;;;;;12.70;67.80;;;;;;4997232;28;19972;-64
2022/03/16 09:07:38;;;;;;;;;;;12.70;67.90;;;;;;4997463;28;19910;-65
2022/03/16 09:10:04;;;;;;;;;;;12.70;68.10;;;;;;4997163;28;19909;-67
2022/03/16 09:12:29;;;;;;;;;;;12.70;67.80;;;;;;4997411;28;19917;-69
2022/03/16 09:14:55;;;;;;;;;;;12.70;67.40;;;;;;4997022;28;19937;-56
2022/03/16 09:17:20;;;;;;;;;;;12.70;66.30;;;;;;4997399;28;19910;-72
2022/03/16 09:19:46;;;;;;;;;;;12.80;66.60;;;;;;4997385;28;20329;-58
2022/03/16 09:22:12;;;;;;;;;;;12.70;67.20;;;;;;4997116;28;20345;-58
2022/03/16 09:24:40;;;;;;;;;;;12.70;67.00;;;;;;4997046;28;19918;-65
2022/03/16 09:27:06;;;;;;;;;;;12.90;66.60;;;;;;4991726;28;19921;-62
2022/03/16 09:29:31;;;;;;;;;;;13.00;66.00;;;;;;4977027;28;19910;-59
2022/03/16 09:31:57;;;;;;;;;;;13.10;65.50;;;;;;4983577;28;19913;-61
2022/03/16 09:34:23;;;;;;;;;;;13.10;65.20;;;;;;4997169;28;19917;-70
2022/03/16 09:36:49;;;;;;;;;;;13.20;65.50;;;;;;4996734;28;19921;-59
2022/03/16 09:39:14;;;;;;;;;;;13.20;65.70;;;;;;4997124;28;19964;-63
2022/03/16 09:41:40;;;;;;;;;;;13.20;65.70;;;;;;4996702;28;20325;-67
2022/03/16 09:44:06;;;;;;;;;;;13.20;65.20;;;;;;4990998;28;20013;-58
2022/03/16 09:46:32;;;;;;;;;;;13.20;65.10;;;;;;4985220;28;20293;-57
2022/03/16 09:48:58;;;;;;;;;;;13.20;65.40;;;;;;4981771;28;19964;-59
2022/03/16 09:51:25;;;;;;;;;;;13.20;65.40;;;;;;4980380;28;19977;-65
2022/03/16 09:53:52;;;;;;;;;;;13.30;64.60;;;;;;4987703;28;19918;-58
2022/03/16 09:56:21;;;;;;;;;;;13.30;63.40;;;;;;4976820;28;19910;-59
2022/03/16 09:58:47;;;;;;;;;;;13.20;64.50;;;;;;4991620;28;19992;-58
2022/03/16 10:01:12;;;;;;;;;;;13.20;65.30;;;;;;4996358;28;19955;-58
2022/03/16 10:03:38;;;;;;;;;;;13.30;66.10;;;;;;4995743;28;19925;-60
2022/03/16 10:06:08;;;;;;;;;;;13.20;65.90;;;;;;4995534;28;19964;-58
2022/03/16 10:08:35;;;;;;;;;;;13.20;66.90;;;;;;4995682;28;19914;-57
2022/03/16 10:14:07;;;;;;;;;;;13.20;66.80;;;;;;4979198;28;19976;-71
2022/03/16 10:17:43;;;;;;;;;;;13.20;66.80;;;;;;4996311;28;19910;-67
2022/03/16 10:19:19;;;;;;;;;;;13.10;66.80;;;;;;4994737;28;19927;-70
2022/03/16 10:22:05;;;;;;;;;;;12.90;67.60;;;;;;4992232;28;20275;-63
2022/03/16 10:24:30;;;;;;;;;;;12.70;69.20;;;;;;4995037;28;19922;-67
2022/03/16 10:26:59;;;;;;;;;;;12.50;69.40;;;;;;4990413;28;19960;-59
2022/03/16 10:29:26;;;;;;;;;;;12.70;69.60;;;;;;4976378;28;20362;-61
2022/03/16 10:32:02;;;;;;;;;;;12.80;69.00;;;;;;4983841;28;19910;-58
2022/03/16 10:34:28;;;;;;;;;;;12.90;68.00;;;;;;4995166;28;19917;-61
2022/03/16 10:36:53;;;;;;;;;;;13.10;67.90;;;;;;4995388;28;19925;-59
2022/03/16 10:39:31;;;;;;;;;;;13.10;67.50;;;;;;4995532;28;19910;-59
2022/03/16 10:47:49;;;;;;;;;;;13.10;66.60;;;;;;4990495;28;19984;-56
2022/03/16 10:50:15;;;;;;;;;;;13.30;66.50;;;;;;4981365;28;19988;-54
2022/03/16 10:52:41;;;;;;;;;;;13.30;66.30;;;;;;4976272;28;19910;-55
2022/03/16 10:55:07;;;;;;;;;;;13.40;66.70;;;;;;4995162;28;19917;-57
2022/03/16 10:57:33;;;;;;;;;;;13.40;66.40;;;;;;4995638;28;20069;-55
2022/03/16 10:59:59;;;;;;;;;;;13.50;66.20;;;;;;4995514;28;19914;-62
2022/03/16 11:02:28;;;;;;;;;;;13.40;65.80;;;;;;4995209;28;19910;-57
2022/03/16 11:04:53;;;;;;;;;;;13.40;65.50;;;;;;4993907;28;19914;-56
2022/03/16 11:07:19;;;;;;;;;;;13.50;66.10;;;;;;4983351;28;19914;-55
2022/03/16 11:09:47;;;;;;;;;;;13.40;66.00;;;;;;4995131;28;19933;-58
2022/03/16 11:14:58;;;;;;;;;;;13.40;65.80;;;;;;4994961;28;20309;-57
2022/03/16 11:17:24;;;;;;;;;;;13.30;66.20;;;;;;4994706;28;19972;-56
2022/03/16 11:19:51;;;;;;;;;;;13.30;66.60;;;;;;4994853;28;19910;-56
2022/03/16 11:22:25;;;;;;;;;;;13.30;66.80;;;;;;4994784;28;19910;-61
2022/03/16 11:24:56;;;;;;;;;;;13.30;66.90;;;;;;4994708;28;19925;-59
2022/03/16 11:27:25;;;;;;;;;;;13.30;68.00;;;;;;4993943;28;19975;-55
2022/03/16 11:29:58;;;;;;;;;;;13.20;68.40;;;;;;4994045;28;19918;-57
2022/03/16 11:32:24;;;;;;;;;;;13.20;69.60;;;;;;4994368;28;19909;-57
2022/03/16 11:34:58;;;;;;;;;;;13.30;69.90;;;;;;4994358;28;19993;-57
2022/03/16 11:37:35;;;;;;;;;;;13.30;69.60;;;;;;4994164;28;19933;-56
2022/03/16 11:40:09;;;;;;;;;;;13.30;69.90;;;;;;4994458;28;19937;-59
2022/03/16 11:42:35;;;;;;;;;;;13.30;70.40;;;;;;4994280;28;19914;-70
2022/03/16 11:45:20;;;;;;;;;;;12.80;72.20;;;;;;4994395;28;20023;-70
2022/03/16 11:47:46;;;;;;;;;;;12.80;72.90;;;;;;4992313;28;19910;-71
2022/03/16 11:50:16;;;;;;;;;;;12.90;72.90;;;;;;4994137;28;20385;-68
2022/03/16 11:52:58;;;;;;;;;;;13.10;72.40;;;;;;4993331;28;19914;-66
2022/03/16 11:55:39;;;;;;;;;;;13.10;72.20;;;;;;4993800;28;19988;-69
2022/03/16 11:58:25;;;;;;;;;;;13.20;72.30;;;;;;4993860;28;20004;-67
2022/03/16 12:00:52;;;;;;;;;;;13.30;72.80;;;;;;4993906;28;19910;-70
2022/03/16 12:03:21;;;;;;;;;;;13.20;72.90;;;;;;4993961;28;20008;-70
2022/03/16 12:05:58;;;;;;;;;;;13.30;73.10;;;;;;4993813;28;19910;-70
2022/03/16 12:08:29;;;;;;;;;;;13.30;73.40;;;;;;4993894;28;19909;-68
2022/03/16 12:12:51;;;;;;;;;;;13.30;73.60;;;;;;4993780;28;19910;-67
2022/03/16 12:13:44;;;;;;;;;;;13.40;73.70;;;;;;4993752;28;20278;-59
2022/03/16 12:16:11;;;;;;;;;;;13.40;73.50;;;;;;4993774;28;19914;-63
2022/03/16 12:18:40;;;;;;;;;;;13.40;73.50;;;;;;4993829;28;20313;-57
2022/03/16 12:21:07;;;;;;;;;;;13.40;73.50;;;;;;4993967;28;20259;-66
2022/03/16 12:25:08;;;;;;;;;;;13.50;73.40;;;;;;4993796;28;19918;-69
2022/03/16 12:28:55;;;;;;;;;;;13.30;73.30;;;;;;4994212;28;19910;-66
2022/03/16 12:29:33;;;;;;;;;;;13.20;74.10;;;;;;4993549;28;20040;-63
2022/03/16 12:32:00;;;;;;;;;;;13.30;74.40;;;;;;4993536;28;19956;-59
2022/03/16 12:34:26;;;;;;;;;;;13.30;73.90;;;;;;4993663;28;19914;-68
2022/03/16 12:36:53;;;;;;;;;;;13.40;73.60;;;;;;4993253;28;19921;-69
2022/03/16 12:39:19;;;;;;;;;;;13.30;73.10;;;;;;4993872;28;20337;-60
2022/03/16 12:44:32;;;;;;;;;;;13.30;73.50;;;;;;4980232;28;19932;-60
2022/03/16 12:47:16;;;;;;;;;;;13.20;73.70;;;;;;4974020;28;19918;-58
2022/03/16 12:49:43;;;;;;;;;;;13.40;73.60;;;;;;4974043;28;19953;-57
2022/03/16 12:52:09;;;;;;;;;;;13.50;72.90;;;;;;4973939;28;19993;-68
2022/03/16 12:54:36;;;;;;;;;;;13.60;72.40;;;;;;4974022;28;20010;-63
2022/03/16 12:57:06;;;;;;;;;;;13.60;72.50;;;;;;4973840;28;20000;-70
2022/03/16 12:59:34;;;;;;;;;;;13.70;72.30;;;;;;4973915;28;19910;-55
2022/03/16 13:02:03;;;;;;;;;;;13.80;71.60;;;;;;4986919;28;19956;-69
2022/03/16 13:04:29;;;;;;;;;;;13.90;71.00;;;;;;4994965;28;19929;-58
2022/03/16 13:06:56;;;;;;;;;;;13.90;71.30;;;;;;4996136;28;20328;-57
2022/03/16 13:09:26;;;;;;;;;;;14.00;71.10;;;;;;4993228;28;19914;-60
2022/03/16 13:12:00;;;;;;;;;;;14.10;70.60;;;;;;4996241;28;19952;-58
2022/03/16 13:14:29;;;;;;;;;;;14.20;70.40;;;;;;4995924;28;19964;-60
2022/03/16 13:16:58;;;;;;;;;;;14.00;70.00;;;;;;4996320;28;20020;-57
2022/03/16 13:19:24;;;;;;;;;;;13.40;72.00;;;;;;4996706;28;20001;-57
2022/03/16 13:22:04;;;;;;;;;;;13.20;73.30;;;;;;4989376;28;19918;-56
2022/03/16 13:24:33;;;;;;;;;;;13.10;73.80;;;;;;4984550;28;19976;-60
2022/03/16 13:27:01;;;;;;;;;;;13.30;73.80;;;;;;4995799;28;19913;-72
2022/03/16 13:29:28;;;;;;;;;;;13.50;73.20;;;;;;4995624;28;19910;-71
2022/03/16 13:31:57;;;;;;;;;;;13.60;72.20;;;;;;4995692;28;19913;-72
2022/03/16 13:34:24;;;;;;;;;;;13.80;71.70;;;;;;4995469;28;19910;-64
2022/03/16 13:36:52;;;;;;;;;;;14.00;71.40;;;;;;4995481;28;19918;-73
2022/03/16 13:39:17;;;;;;;;;;;14.20;70.60;;;;;;4995604;28;19979;-70
2022/03/16 13:42:15;;;;;;;;;;;14.30;69.60;;;;;;4995989;28;20322;-72
2022/03/16 13:44:42;;;;;;;;;;;14.00;69.90;;;;;;4996354;28;19923;-71
2022/03/16 13:47:11;;;;;;;;;;;13.90;70.60;;;;;;4978163;28;19960;-61
2022/03/16 13:49:42;;;;;;;;;;;14.00;70.10;;;;;;4995490;28;19940;-63
2022/03/16 13:52:09;;;;;;;;;;;14.00;69.80;;;;;;4995380;28;19917;-58
2022/03/16 13:54:35;;;;;;;;;;;14.10;70.10;;;;;;4995443;28;19910;-58
2022/03/16 13:57:12;;;;;;;;;;;14.10;69.80;;;;;;4995275;28;19917;-56
2022/03/16 13:59:38;;;;;;;;;;;14.30;69.20;;;;;;4993602;28;19921;-56
2022/03/16 14:02:28;;;;;;;;;;;14.20;68.90;;;;;;4994170;28;19920;-63
2022/03/16 14:04:55;;;;;;;;;;;14.30;69.20;;;;;;4993439;28;20369;-58
2022/03/16 14:07:23;;;;;;;;;;;13.80;69.70;;;;;;4995339;28;19914;-55
2022/03/16 14:09:53;;;;;;;;;;;13.90;70.30;;;;;;4995570;28;19910;-55
2022/03/16 14:12:19;;;;;;;;;;;14.00;70.20;;;;;;4996242;28;19942;-55
2022/03/16 14:14:46;;;;;;;;;;;14.10;69.40;;;;;;4988033;28;19914;-56
2022/03/16 14:17:12;;;;;;;;;;;14.10;69.60;;;;;;4988021;28;19914;-57
2022/03/16 14:19:38;;;;;;;;;;;14.20;69.00;;;;;;4990795;28;19958;-55
2022/03/16 14:22:05;;;;;;;;;;;14.20;68.40;;;;;;4985651;28;20286;-61
2022/03/16 14:24:33;;;;;;;;;;;14.00;68.60;;;;;;4993159;28;20004;-60
2022/03/16 14:27:15;;;;;;;;;;;14.00;69.50;;;;;;4992710;28;19914;-64
2022/03/16 14:29:45;;;;;;;;;;;14.00;69.30;;;;;;4983605;28;19916;-58
2022/03/16 14:32:15;;;;;;;;;;;14.00;68.70;;;;;;4985382;28;19914;-58
2022/03/16 14:34:41;;;;;;;;;;;14.00;69.10;;;;;;4995472;28;19909;-59